sensor_id;sensor_type;location;lat;lon;timestamp;pressure;altitude;pressure_sealevel;temperature;humidity
29535;BME280;72082;52.650;8.116;2023-08-24T00:02:07;101496.97;;;19.15;69.23
29535;BME280;72082;52.650;8.116;2023-08-24T00:04:32;101499.66;;;19.11;69.30
29535;BME280;72082;52.650;8.116;2023-08-24T00:06:58;101496.19;;;19.11;69.15
29535;BME280;72082;52.650;8.116;2023-08-24T00:09:23;101492.72;;;19.12;69.35
29535;BME280;72082;52.650;8.116;2023-08-24T00:11:48;101495.31;;;19.12;69.29
29535;BME280;72082;52.650;8.116;2023-08-24T00:14:13;101488.53;;;19.06;69.08
29535;BME280;72082;52.650;8.116;2023-08-24T00:16:38;101488.69;;;19.00;69.41
29535;BME280;72082;52.650;8.116;2023-08-24T00:19:04;101485.25;;;19.00;69.40
29535;BME280;72082;52.650;8.116;2023-08-24T00:21:30;101487.91;;;18.97;69.26
29535;BME280;72082;52.650;8.116;2023-08-24T00:23:55;101493.25;;;18.91;69.49
29535;BME280;72082;52.650;8.116;2023-08-24T00:26:20;101486.53;;;18.84;69.30
29535;BME280;72082;52.650;8.116;2023-08-24T00:28:46;101490.13;;;18.78;70.02
29535;BME280;72082;52.650;8.116;2023-08-24T00:31:11;101488.50;;;18.74;69.74
29535;BME280;72082;52.650;8.116;2023-08-24T00:33:37;101487.59;;;18.75;70.11
29535;BME280;72082;52.650;8.116;2023-08-24T00:36:02;101483.22;;;18.77;70.08
29535;BME280;72082;52.650;8.116;2023-08-24T00:38:28;101488.41;;;18.77;70.15
29535;BME280;72082;52.650;8.116;2023-08-24T00:40:53;101487.56;;;18.77;69.83
29535;BME280;72082;52.650;8.116;2023-08-24T00:43:18;101482.38;;;18.77;69.85
29535;BME280;72082;52.650;8.116;2023-08-24T00:45:43;101490.19;;;18.75;70.04
29535;BME280;72082;52.650;8.116;2023-08-24T00:48:09;101480.78;;;18.71;69.62
29535;BME280;72082;52.650;8.116;2023-08-24T00:50:34;101479.97;;;18.69;69.92
29535;BME280;72082;52.650;8.116;2023-08-24T00:52:59;101470.50;;;18.67;69.95
29535;BME280;72082;52.650;8.116;2023-08-24T00:55:25;101473.28;;;18.59;70.30
29535;BME280;72082;52.650;8.116;2023-08-24T00:57:51;101465.72;;;18.50;70.95
29535;BME280;72082;52.650;8.116;2023-08-24T01:00:16;101470.13;;;18.48;70.65
29535;BME280;72082;52.650;8.116;2023-08-24T01:02:42;101474.44;;;18.47;70.39
29535;BME280;72082;52.650;8.116;2023-08-24T01:05:07;101468.34;;;18.48;70.44
29535;BME280;72082;52.650;8.116;2023-08-24T01:07:34;101457.97;;;18.48;70.56
29535;BME280;72082;52.650;8.116;2023-08-24T01:10:01;101458.88;;;18.47;70.29
29535;BME280;72082;52.650;8.116;2023-08-24T01:12:44;101463.22;;;18.45;70.74
29535;BME280;72082;52.650;8.116;2023-08-24T01:15:17;101459.97;;;18.36;70.43
29535;BME280;72082;52.650;8.116;2023-08-24T01:17:45;101463.56;;;18.30;70.82
29535;BME280;72082;52.650;8.116;2023-08-24T01:20:13;101455.03;;;18.25;70.60
29535;BME280;72082;52.650;8.116;2023-08-24T01:22:54;101460.22;;;18.25;71.14
29535;BME280;72082;52.650;8.116;2023-08-24T01:25:36;101462.06;;;18.22;71.49
29535;BME280;72082;52.650;8.116;2023-08-24T01:28:03;101456.06;;;18.18;71.12
29535;BME280;72082;52.650;8.116;2023-08-24T01:30:30;101472.59;;;18.14;71.08
29535;BME280;72082;52.650;8.116;2023-08-24T01:32:55;101471.81;;;18.11;71.17
29535;BME280;72082;52.650;8.116;2023-08-24T01:35:21;101481.38;;;18.09;71.28
29535;BME280;72082;52.650;8.116;2023-08-24T01:37:46;101474.41;;;18.11;70.98
29535;BME280;72082;52.650;8.116;2023-08-24T01:43:05;101452.84;;;18.09;71.39
29535;BME280;72082;52.650;8.116;2023-08-24T01:45:32;101455.50;;;18.04;71.01
29535;BME280;72082;52.650;8.116;2023-08-24T01:48:01;101451.28;;;18.00;71.32
29535;BME280;72082;52.650;8.116;2023-08-24T01:50:27;101448.00;;;17.92;71.44
29535;BME280;72082;52.650;8.116;2023-08-24T01:52:52;101457.75;;;17.82;71.65
29535;BME280;72082;52.650;8.116;2023-08-24T01:55:18;101450.09;;;17.76;71.93
29535;BME280;72082;52.650;8.116;2023-08-24T01:57:44;101446.69;;;17.73;72.01
29535;BME280;72082;52.650;8.116;2023-08-24T02:00:09;101447.72;;;17.67;72.26
29535;BME280;72082;52.650;8.116;2023-08-24T02:02:35;101441.66;;;17.67;71.95
29535;BME280;72082;52.650;8.116;2023-08-24T02:05:00;101439.03;;;17.68;71.48
29535;BME280;72082;52.650;8.116;2023-08-24T02:07:26;101441.59;;;17.70;71.64
29535;BME280;72082;52.650;8.116;2023-08-24T02:09:51;101442.41;;;17.72;71.59
29535;BME280;72082;52.650;8.116;2023-08-24T02:12:16;101444.16;;;17.71;72.04
29535;BME280;72082;52.650;8.116;2023-08-24T02:14:41;101432.09;;;17.69;71.35
29535;BME280;72082;52.650;8.116;2023-08-24T02:17:07;101430.47;;;17.65;71.86
29535;BME280;72082;52.650;8.116;2023-08-24T02:19:32;101424.38;;;17.66;71.62
29535;BME280;72082;52.650;8.116;2023-08-24T02:21:57;101407.09;;;17.66;71.80
29535;BME280;72082;52.650;8.116;2023-08-24T02:24:22;101404.56;;;17.65;71.82
29535;BME280;72082;52.650;8.116;2023-08-24T02:26:47;101401.06;;;17.66;71.33
29535;BME280;72082;52.650;8.116;2023-08-24T02:29:13;101402.78;;;17.67;71.65
29535;BME280;72082;52.650;8.116;2023-08-24T02:31:38;101408.84;;;17.66;71.75
29535;BME280;72082;52.650;8.116;2023-08-24T02:34:03;101399.44;;;17.62;71.83
29535;BME280;72082;52.650;8.116;2023-08-24T02:36:28;101415.84;;;17.61;72.22
29535;BME280;72082;52.650;8.116;2023-08-24T02:38:54;101404.69;;;17.59;71.78
29535;BME280;72082;52.650;8.116;2023-08-24T02:41:19;101391.72;;;17.59;71.99
29535;BME280;72082;52.650;8.116;2023-08-24T02:43:44;101388.22;;;17.60;71.76
29535;BME280;72082;52.650;8.116;2023-08-24T02:46:09;101382.09;;;17.64;71.71
29535;BME280;72082;52.650;8.116;2023-08-24T02:48:35;101375.06;;;17.69;71.64
29535;BME280;72082;52.650;8.116;2023-08-24T02:51:01;101372.41;;;17.72;71.41
29535;BME280;72082;52.650;8.116;2023-08-24T02:53:27;101382.78;;;17.72;71.60
29535;BME280;72082;52.650;8.116;2023-08-24T02:55:53;101383.66;;;17.72;71.58
29535;BME280;72082;52.650;8.116;2023-08-24T02:58:18;101392.22;;;17.74;71.80
29535;BME280;72082;52.650;8.116;2023-08-24T03:00:43;101390.50;;;17.73;71.66
29535;BME280;72082;52.650;8.116;2023-08-24T03:03:08;101381.06;;;17.72;71.59
29535;BME280;72082;52.650;8.116;2023-08-24T03:05:34;101387.16;;;17.70;71.38
29535;BME280;72082;52.650;8.116;2023-08-24T03:07:59;101390.69;;;17.66;71.64
29535;BME280;72082;52.650;8.116;2023-08-24T03:10:24;101403.59;;;17.69;71.98
29535;BME280;72082;52.650;8.116;2023-08-24T03:12:50;101404.28;;;17.77;71.89
29535;BME280;72082;52.650;8.116;2023-08-24T03:15:15;101398.22;;;17.78;71.85
29535;BME280;72082;52.650;8.116;2023-08-24T03:17:41;101406.06;;;17.73;71.74
29535;BME280;72082;52.650;8.116;2023-08-24T03:20:06;101400.88;;;17.73;71.66
29535;BME280;72082;52.650;8.116;2023-08-24T03:22:32;101409.47;;;17.75;71.69
29535;BME280;72082;52.650;8.116;2023-08-24T03:24:57;101409.56;;;17.72;71.98
29535;BME280;72082;52.650;8.116;2023-08-24T03:27:23;101401.03;;;17.67;72.04
29535;BME280;72082;52.650;8.116;2023-08-24T03:29:48;101408.84;;;17.66;72.08
29535;BME280;72082;52.650;8.116;2023-08-24T03:32:14;101414.81;;;17.69;72.11
29535;BME280;72082;52.650;8.116;2023-08-24T03:34:39;101402.63;;;17.73;72.19
29535;BME280;72082;52.650;8.116;2023-08-24T03:37:07;101406.13;;;17.72;72.31
29535;BME280;72082;52.650;8.116;2023-08-24T03:39:39;101409.59;;;17.71;72.42
29535;BME280;72082;52.650;8.116;2023-08-24T03:42:04;101418.28;;;17.70;72.24
29535;BME280;72082;52.650;8.116;2023-08-24T03:44:31;101418.16;;;17.74;72.20
29535;BME280;72082;52.650;8.116;2023-08-24T03:47:02;101411.13;;;17.79;72.33
29535;BME280;72082;52.650;8.116;2023-08-24T03:49:27;101412.00;;;17.78;72.25
29535;BME280;72082;52.650;8.116;2023-08-24T03:51:52;101420.72;;;17.76;72.32
29535;BME280;72082;52.650;8.116;2023-08-24T03:54:18;101425.88;;;17.77;72.32
29535;BME280;72082;52.650;8.116;2023-08-24T03:56:44;101406.13;;;17.72;72.68
29535;BME280;72082;52.650;8.116;2023-08-24T03:59:09;101412.34;;;17.65;72.89
29535;BME280;72082;52.650;8.116;2023-08-24T04:01:35;101399.50;;;17.57;73.07
29535;BME280;72082;52.650;8.116;2023-08-24T04:04:00;101394.56;;;17.45;73.09
29535;BME280;72082;52.650;8.116;2023-08-24T04:06:26;101402.38;;;17.44;73.59
29535;BME280;72082;52.650;8.116;2023-08-24T04:08:52;101392.72;;;17.52;73.51
29535;BME280;72082;52.650;8.116;2023-08-24T04:11:18;101392.53;;;17.61;73.29
29535;BME280;72082;52.650;8.116;2023-08-24T04:13:44;101399.25;;;17.69;73.03
29535;BME280;72082;52.650;8.116;2023-08-24T04:16:09;101391.31;;;17.77;73.03
29535;BME280;72082;52.650;8.116;2023-08-24T04:18:34;101396.38;;;17.81;72.44
29535;BME280;72082;52.650;8.116;2023-08-24T04:20:59;101390.28;;;17.84;72.41
29535;BME280;72082;52.650;8.116;2023-08-24T04:23:25;101400.72;;;17.81;72.71
29535;BME280;72082;52.650;8.116;2023-08-24T04:25:51;101388.78;;;17.74;73.07
29535;BME280;72082;52.650;8.116;2023-08-24T04:28:16;101396.63;;;17.71;73.29
29535;BME280;72082;52.650;8.116;2023-08-24T04:30:53;101400.13;;;17.68;73.39
29535;BME280;72082;52.650;8.116;2023-08-24T04:33:19;101391.50;;;17.68;73.55
29535;BME280;72082;52.650;8.116;2023-08-24T04:35:47;101382.84;;;17.69;73.48
29535;BME280;72082;52.650;8.116;2023-08-24T04:38:12;101399.25;;;17.69;73.79
29535;BME280;72082;52.650;8.116;2023-08-24T04:43:11;101405.13;;;17.77;73.63
29535;BME280;72082;52.650;8.116;2023-08-24T04:45:37;101411.94;;;17.83;73.70
29535;BME280;72082;52.650;8.116;2023-08-24T04:48:02;101410.16;;;17.85;73.32
29535;BME280;72082;52.650;8.116;2023-08-24T04:50:27;101420.53;;;17.85;73.43
29535;BME280;72082;52.650;8.116;2023-08-24T04:52:53;101413.69;;;17.81;73.78
29535;BME280;72082;52.650;8.116;2023-08-24T04:55:18;101407.72;;;17.77;74.00
29535;BME280;72082;52.650;8.116;2023-08-24T04:57:43;101421.63;;;17.75;76.87
29535;BME280;72082;52.650;8.116;2023-08-24T05:00:09;101407.69;;;17.79;76.99
29535;BME280;72082;52.650;8.116;2023-08-24T05:02:34;101405.88;;;17.82;76.70
29535;BME280;72082;52.650;8.116;2023-08-24T05:05:00;101392.88;;;17.84;76.36
29535;BME280;72082;52.650;8.116;2023-08-24T05:07:25;101396.28;;;17.86;75.93
29535;BME280;72082;52.650;8.116;2023-08-24T05:09:53;101404.03;;;17.87;76.12
29535;BME280;72082;52.650;8.116;2023-08-24T05:12:18;101401.47;;;17.86;76.18
29535;BME280;72082;52.650;8.116;2023-08-24T05:14:43;101398.88;;;17.86;76.19
29535;BME280;72082;52.650;8.116;2023-08-24T05:17:09;101400.59;;;17.87;75.95
29535;BME280;72082;52.650;8.116;2023-08-24T05:19:34;101396.25;;;17.87;75.99
29535;BME280;72082;52.650;8.116;2023-08-24T05:21:59;101401.41;;;17.89;75.89
29535;BME280;72082;52.650;8.116;2023-08-24T05:24:24;101391.81;;;17.93;76.04
29535;BME280;72082;52.650;8.116;2023-08-24T05:26:49;101403.72;;;18.01;76.04
29535;BME280;72082;52.650;8.116;2023-08-24T05:29:15;101398.38;;;18.09;75.89
29535;BME280;72082;52.650;8.116;2023-08-24T05:31:40;101396.47;;;18.15;75.79
29535;BME280;72082;52.650;8.116;2023-08-24T05:34:05;101400.63;;;18.22;75.62
29535;BME280;72082;52.650;8.116;2023-08-24T05:36:30;101390.09;;;18.28;75.59
29535;BME280;72082;52.650;8.116;2023-08-24T05:38:55;101386.53;;;18.32;75.56
29535;BME280;72082;52.650;8.116;2023-08-24T05:41:21;101388.22;;;18.35;75.23
29535;BME280;72082;52.650;8.116;2023-08-24T05:43:46;101393.34;;;18.36;75.62
29535;BME280;72082;52.650;8.116;2023-08-24T05:46:11;101394.13;;;18.40;75.32
29535;BME280;72082;52.650;8.116;2023-08-24T05:48:37;101397.47;;;18.45;75.71
29535;BME280;72082;52.650;8.116;2023-08-24T05:51:03;101399.09;;;18.51;75.69
29535;BME280;72082;52.650;8.116;2023-08-24T05:53:28;101401.50;;;18.57;76.01
29535;BME280;72082;52.650;8.116;2023-08-24T05:55:58;101390.97;;;18.63;76.08
29535;BME280;72082;52.650;8.116;2023-08-24T05:58:23;101385.66;;;18.69;75.40
29535;BME280;72082;52.650;8.116;2023-08-24T06:00:55;101381.13;;;18.75;75.68
29535;BME280;72082;52.650;8.116;2023-08-24T06:03:20;101384.53;;;18.77;75.52
29535;BME280;72082;52.650;8.116;2023-08-24T06:05:46;101390.50;;;18.81;75.73
29535;BME280;72082;52.650;8.116;2023-08-24T06:08:11;101395.63;;;18.84;75.51
29535;BME280;72082;52.650;8.116;2023-08-24T06:10:36;101383.38;;;18.89;75.47
29535;BME280;72082;52.650;8.116;2023-08-24T06:13:01;101381.50;;;18.94;75.26
29535;BME280;72082;52.650;8.116;2023-08-24T06:15:27;101386.69;;;18.94;75.34
29535;BME280;72082;52.650;8.116;2023-08-24T06:17:52;101377.94;;;18.96;75.44
29535;BME280;72082;52.650;8.116;2023-08-24T06:20:17;101366.69;;;18.97;75.38
29535;BME280;72082;52.650;8.116;2023-08-24T06:22:43;101359.63;;;19.01;75.60
29535;BME280;72082;52.650;8.116;2023-08-24T06:25:09;101367.22;;;19.08;75.56
29535;BME280;72082;52.650;8.116;2023-08-24T06:27:34;101356.63;;;19.16;75.40
29535;BME280;72082;52.650;8.116;2023-08-24T06:29:59;101358.16;;;19.22;75.32
29535;BME280;72082;52.650;8.116;2023-08-24T06:32:24;101352.88;;;19.25;75.40
29535;BME280;72082;52.650;8.116;2023-08-24T06:34:50;101352.88;;;19.25;75.44
29535;BME280;72082;52.650;8.116;2023-08-24T06:37:15;101357.16;;;19.27;75.67
29535;BME280;72082;52.650;8.116;2023-08-24T06:39:40;101346.63;;;19.32;75.35
29535;BME280;72082;52.650;8.116;2023-08-24T06:42:05;101343.03;;;19.36;75.29
29535;BME280;72082;52.650;8.116;2023-08-24T06:44:30;101343.72;;;19.42;75.69
29535;BME280;72082;52.650;8.116;2023-08-24T06:46:56;101340.91;;;19.50;75.65
29535;BME280;72082;52.650;8.116;2023-08-24T06:49:21;101335.56;;;19.54;75.41
29535;BME280;72082;52.650;8.116;2023-08-24T06:51:49;101329.38;;;19.58;75.57
29535;BME280;72082;52.650;8.116;2023-08-24T06:54:14;101334.56;;;19.58;75.44
29535;BME280;72082;52.650;8.116;2023-08-24T06:56:40;101341.34;;;19.64;75.74
29535;BME280;72082;52.650;8.116;2023-08-24T06:59:05;101342.13;;;19.66;75.74
29535;BME280;72082;52.650;8.116;2023-08-24T07:01:30;101325.50;;;19.71;75.69
29535;BME280;72082;52.650;8.116;2023-08-24T07:03:55;101336.56;;;19.78;75.50
29535;BME280;72082;52.650;8.116;2023-08-24T07:06:21;101334.59;;;19.85;75.42
29535;BME280;72082;52.650;8.116;2023-08-24T07:08:46;101319.69;;;19.90;75.42
29535;BME280;72082;52.650;8.116;2023-08-24T07:11:11;101317.69;;;19.98;75.05
29535;BME280;72082;52.650;8.116;2023-08-24T07:13:36;101327.03;;;20.05;75.22
29535;BME280;72082;52.650;8.116;2023-08-24T07:16:02;101319.84;;;20.11;74.98
29535;BME280;72082;52.650;8.116;2023-08-24T07:18:27;101311.88;;;20.16;75.35
29535;BME280;72082;52.650;8.116;2023-08-24T07:20:54;101299.53;;;20.22;75.08
29535;BME280;72082;52.650;8.116;2023-08-24T07:23:19;101302.91;;;20.26;75.12
29535;BME280;72082;52.650;8.116;2023-08-24T07:25:44;101298.34;;;20.33;74.97
29535;BME280;72082;52.650;8.116;2023-08-24T07:28:09;101293.91;;;20.36;75.33
29535;BME280;72082;52.650;8.116;2023-08-24T07:30:35;101289.38;;;20.41;75.04
29535;BME280;72082;52.650;8.116;2023-08-24T07:33:02;101289.22;;;20.46;75.21
29535;BME280;72082;52.650;8.116;2023-08-24T07:35:27;101294.22;;;20.52;75.11
29535;BME280;72082;52.650;8.116;2023-08-24T07:37:52;101294.03;;;20.56;75.11
29535;BME280;72082;52.650;8.116;2023-08-24T07:40:18;101286.16;;;20.58;74.96
29535;BME280;72082;52.650;8.116;2023-08-24T07:42:47;101280.06;;;20.59;75.18
29535;BME280;72082;52.650;8.116;2023-08-24T07:45:13;101270.31;;;20.64;74.95
29535;BME280;72082;52.650;8.116;2023-08-24T07:47:39;101277.84;;;20.71;74.97
29535;BME280;72082;52.650;8.116;2023-08-24T07:50:04;101274.97;;;20.79;75.11
29535;BME280;72082;52.650;8.116;2023-08-24T07:52:30;101278.22;;;20.85;74.84
29535;BME280;72082;52.650;8.116;2023-08-24T07:54:55;101269.28;;;20.91;74.82
29535;BME280;72082;52.650;8.116;2023-08-24T07:57:20;101265.56;;;20.98;74.88
29535;BME280;72082;52.650;8.116;2023-08-24T07:59:46;101268.69;;;21.08;74.72
29535;BME280;72082;52.650;8.116;2023-08-24T08:02:11;101281.44;;;21.15;74.75
29535;BME280;72082;52.650;8.116;2023-08-24T08:04:36;101278.63;;;21.21;74.49
29535;BME280;72082;52.650;8.116;2023-08-24T08:07:01;101272.19;;;21.30;74.49
29535;BME280;72082;52.650;8.116;2023-08-24T08:09:26;101274.56;;;21.36;74.34
29535;BME280;72082;52.650;8.116;2023-08-24T08:11:52;101268.22;;;21.43;74.17
29535;BME280;72082;52.650;8.116;2023-08-24T08:14:17;101268.78;;;21.49;74.30
29535;BME280;72082;52.650;8.116;2023-08-24T08:16:42;101272.81;;;21.58;74.39
29535;BME280;72082;52.650;8.116;2023-08-24T08:19:07;101276.75;;;21.68;73.99
29535;BME280;72082;52.650;8.116;2023-08-24T08:21:32;101258.25;;;21.74;73.89
29535;BME280;72082;52.650;8.116;2023-08-24T08:23:58;101260.69;;;21.77;73.72
29535;BME280;72082;52.650;8.116;2023-08-24T08:26:23;101256.34;;;21.78;74.15
29535;BME280;72082;52.650;8.116;2023-08-24T08:28:48;101263.13;;;21.82;74.10
29535;BME280;72082;52.650;8.116;2023-08-24T08:31:13;101265.59;;;21.86;74.30
29535;BME280;72082;52.650;8.116;2023-08-24T08:33:39;101271.34;;;21.94;74.28
29535;BME280;72082;52.650;8.116;2023-08-24T08:36:04;101272.78;;;22.01;73.97
29535;BME280;72082;52.650;8.116;2023-08-24T08:38:30;101265.47;;;22.09;74.13
29535;BME280;72082;52.650;8.116;2023-08-24T08:41:02;101266.84;;;22.18;74.04
29535;BME280;72082;52.650;8.116;2023-08-24T08:43:27;101268.28;;;22.25;73.78
29535;BME280;72082;52.650;8.116;2023-08-24T08:45:54;101263.44;;;22.36;73.96
29535;BME280;72082;52.650;8.116;2023-08-24T08:48:20;101260.50;;;22.44;73.77
29535;BME280;72082;52.650;8.116;2023-08-24T08:50:49;101242.72;;;22.52;73.74
29535;BME280;72082;52.650;8.116;2023-08-24T08:53:16;101250.13;;;22.61;73.54
29535;BME280;72082;52.650;8.116;2023-08-24T08:55:41;101227.94;;;22.71;73.51
29535;BME280;72082;52.650;8.116;2023-08-24T08:58:07;101225.69;;;22.82;73.49
29535;BME280;72082;52.650;8.116;2023-08-24T09:00:32;101244.19;;;22.96;73.11
29535;BME280;72082;52.650;8.116;2023-08-24T09:02:58;101243.69;;;23.07;73.20
29535;BME280;72082;52.650;8.116;2023-08-24T09:05:24;101244.38;;;23.10;72.97
29535;BME280;72082;52.650;8.116;2023-08-24T09:07:49;101229.50;;;23.12;73.00
29535;BME280;72082;52.650;8.116;2023-08-24T09:10:15;101218.81;;;23.17;73.17
29535;BME280;72082;52.650;8.116;2023-08-24T09:12:40;101209.75;;;23.24;73.36
29535;BME280;72082;52.650;8.116;2023-08-24T09:15:07;101212.84;;;23.32;73.19
29535;BME280;72082;52.650;8.116;2023-08-24T09:17:33;101213.34;;;23.40;73.24
29535;BME280;72082;52.650;8.116;2023-08-24T09:20:05;101211.25;;;23.47;73.03
29535;BME280;72082;52.650;8.116;2023-08-24T09:22:34;101208.34;;;23.53;73.05
29535;BME280;72082;52.650;8.116;2023-08-24T09:25:00;101209.69;;;23.61;72.99
29535;BME280;72082;52.650;8.116;2023-08-24T09:27:25;101202.34;;;23.68;72.75
29535;BME280;72082;52.650;8.116;2023-08-24T09:29:53;101194.91;;;23.77;73.17
29535;BME280;72082;52.650;8.116;2023-08-24T09:32:28;101187.34;;;23.88;72.43
29535;BME280;72082;52.650;8.116;2023-08-24T09:34:54;101193.63;;;24.02;72.41
29535;BME280;72082;52.650;8.116;2023-08-24T09:37:19;101188.09;;;24.08;72.35
29535;BME280;72082;52.650;8.116;2023-08-24T09:39:44;101175.56;;;24.14;71.95
29535;BME280;72082;52.650;8.116;2023-08-24T09:42:10;101183.69;;;24.25;72.36
29535;BME280;72082;52.650;8.116;2023-08-24T09:44:35;101180.59;;;24.34;72.05
29535;BME280;72082;52.650;8.116;2023-08-24T09:47:00;101155.59;;;24.44;72.01
29535;BME280;72082;52.650;8.116;2023-08-24T09:49:28;101146.81;;;24.61;72.10
29535;BME280;72082;52.650;8.116;2023-08-24T09:51:56;101150.13;;;24.80;71.87
29535;BME280;72082;52.650;8.116;2023-08-24T09:54:28;101147.50;;;24.96;71.23
29535;BME280;72082;52.650;8.116;2023-08-24T09:56:58;101156.38;;;25.09;71.42
29535;BME280;72082;52.650;8.116;2023-08-24T09:59:26;101157.63;;;25.17;71.63
29535;BME280;72082;52.650;8.116;2023-08-24T10:01:51;101156.63;;;25.20;71.17
29535;BME280;72082;52.650;8.116;2023-08-24T10:04:23;101150.06;;;25.27;71.09
29535;BME280;72082;52.650;8.116;2023-08-24T10:07:11;101153.50;;;25.43;71.41
29535;BME280;72082;52.650;8.116;2023-08-24T10:09:41;101145.50;;;25.60;71.15
29535;BME280;72082;52.650;8.116;2023-08-24T10:12:09;101143.94;;;25.72;71.02
29535;BME280;72082;52.650;8.116;2023-08-24T10:17:07;101123.41;;;25.78;71.27
29535;BME280;72082;52.650;8.116;2023-08-24T10:19:33;101122.13;;;25.86;71.24
29535;BME280;72082;52.650;8.116;2023-08-24T10:22:00;101129.59;;;25.92;70.92
29535;BME280;72082;52.650;8.116;2023-08-24T10:24:25;101122.75;;;25.89;71.21
29535;BME280;72082;52.650;8.116;2023-08-24T10:26:52;101117.91;;;25.83;71.65
29535;BME280;72082;52.650;8.116;2023-08-24T10:29:20;101119.03;;;25.93;70.92
29535;BME280;72082;52.650;8.116;2023-08-24T10:31:46;101103.47;;;26.04;70.81
29535;BME280;72082;52.650;8.116;2023-08-24T10:34:13;101111.28;;;26.20;70.97
29535;BME280;72082;52.650;8.116;2023-08-24T10:36:40;101094.44;;;26.36;70.54
29535;BME280;72082;52.650;8.116;2023-08-24T10:39:05;101087.38;;;26.51;70.14
29535;BME280;72082;52.650;8.116;2023-08-24T10:41:47;101088.28;;;26.64;70.42
29535;BME280;72082;52.650;8.116;2023-08-24T10:44:24;101087.13;;;26.82;69.92
29535;BME280;72082;52.650;8.116;2023-08-24T10:47:21;101084.41;;;26.96;69.59
29535;BME280;72082;52.650;8.116;2023-08-24T10:54:52;101069.94;;;27.16;69.42
29535;BME280;72082;52.650;8.116;2023-08-24T10:57:25;101065.09;;;27.23;69.75
29535;BME280;72082;52.650;8.116;2023-08-24T11:00:10;101069.56;;;27.35;69.67
29535;BME280;72082;52.650;8.116;2023-08-24T11:07:49;101057.59;;;27.81;69.14
29535;BME280;72082;52.650;8.116;2023-08-24T11:10:15;101047.09;;;27.92;68.67
29535;BME280;72082;52.650;8.116;2023-08-24T11:15:40;101050.25;;;28.23;68.28
29535;BME280;72082;52.650;8.116;2023-08-24T11:18:26;101033.09;;;28.41;68.43
29535;BME280;72082;52.650;8.116;2023-08-24T11:20:56;101021.84;;;28.39;68.25
29535;BME280;72082;52.650;8.116;2023-08-24T11:23:24;101019.34;;;28.25;68.26
29535;BME280;72082;52.650;8.116;2023-08-24T11:25:51;101014.75;;;28.15;69.01
29535;BME280;72082;52.650;8.116;2023-08-24T11:28:18;101010.19;;;28.17;68.65
29535;BME280;72082;52.650;8.116;2023-08-24T11:30:44;101010.19;;;28.17;68.73
29535;BME280;72082;52.650;8.116;2023-08-24T11:33:11;101004.59;;;28.22;68.88
29535;BME280;72082;52.650;8.116;2023-08-24T11:35:36;101012.00;;;28.41;68.13
29535;BME280;72082;52.650;8.116;2023-08-24T11:38:03;101008.81;;;28.72;67.74
29535;BME280;72082;52.650;8.116;2023-08-24T11:40:28;101007.75;;;29.09;66.80
29535;BME280;72082;52.650;8.116;2023-08-24T11:42:54;100988.88;;;29.49;66.25
29535;BME280;72082;52.650;8.116;2023-08-24T11:45:20;100978.06;;;29.85;65.66
29535;BME280;72082;52.650;8.116;2023-08-24T11:47:46;100973.44;;;30.09;65.41
29535;BME280;72082;52.650;8.116;2023-08-24T11:50:11;100973.00;;;30.47;65.07
29535;BME280;72082;52.650;8.116;2023-08-24T11:52:40;100950.09;;;30.78;64.27
29535;BME280;72082;52.650;8.116;2023-08-24T11:55:06;100928.06;;;31.18;63.81
29535;BME280;72082;52.650;8.116;2023-08-24T11:57:37;100925.72;;;31.46;63.23
29535;BME280;72082;52.650;8.116;2023-08-24T12:00:03;100919.59;;;31.55;63.29
29535;BME280;72082;52.650;8.116;2023-08-24T12:02:29;100920.44;;;31.55;62.87
29535;BME280;72082;52.650;8.116;2023-08-24T12:04:55;100929.19;;;31.96;62.13
29535;BME280;72082;52.650;8.116;2023-08-24T12:07:21;100926.97;;;32.49;60.92
29535;BME280;72082;52.650;8.116;2023-08-24T12:09:46;100931.84;;;32.91;60.95
29535;BME280;72082;52.650;8.116;2023-08-24T12:12:15;100917.72;;;33.01;61.03
29535;BME280;72082;52.650;8.116;2023-08-24T12:14:45;100914.88;;;33.21;60.49
29535;BME280;72082;52.650;8.116;2023-08-24T12:17:11;100917.78;;;33.55;59.96
29535;BME280;72082;52.650;8.116;2023-08-24T12:19:36;100915.84;;;34.02;59.98
29535;BME280;72082;52.650;8.116;2023-08-24T12:22:01;100920.25;;;34.46;59.07
29535;BME280;72082;52.650;8.116;2023-08-24T12:24:27;100916.69;;;34.81;58.57
29535;BME280;72082;52.650;8.116;2023-08-24T12:26:58;100917.47;;;34.99;58.82
29535;BME280;72082;52.650;8.116;2023-08-24T12:29:23;100941.03;;;34.86;59.08
29535;BME280;72082;52.650;8.116;2023-08-24T12:31:51;100920.91;;;34.66;59.83
29535;BME280;72082;52.650;8.116;2023-08-24T12:34:16;100937.13;;;34.37;60.66
29535;BME280;72082;52.650;8.116;2023-08-24T12:36:42;100937.56;;;34.68;60.21
29535;BME280;72082;52.650;8.116;2023-08-24T12:39:07;100927.56;;;34.88;59.65
29535;BME280;72082;52.650;8.116;2023-08-24T12:41:32;100918.34;;;35.33;58.81
29535;BME280;72082;52.650;8.116;2023-08-24T12:43:58;100921.22;;;35.98;57.65
29535;BME280;72082;52.650;8.116;2023-08-24T12:46:23;100923.19;;;35.64;58.20
29535;BME280;72082;52.650;8.116;2023-08-24T12:48:49;100915.97;;;34.97;60.14
29535;BME280;72082;52.650;8.116;2023-08-24T12:51:15;100920.03;;;34.40;61.13
29535;BME280;72082;52.650;8.116;2023-08-24T12:53:40;100911.13;;;34.31;61.29
29535;BME280;72082;52.650;8.116;2023-08-24T12:56:05;100896.50;;;34.53;60.31
29535;BME280;72082;52.650;8.116;2023-08-24T12:58:30;100899.66;;;34.74;60.05
29535;BME280;72082;52.650;8.116;2023-08-24T13:00:56;100890.41;;;34.78;59.58
29535;BME280;72082;52.650;8.116;2023-08-24T13:03:21;100897.25;;;34.63;59.42
29535;BME280;72082;52.650;8.116;2023-08-24T13:05:46;100897.97;;;34.30;59.70
29535;BME280;72082;52.650;8.116;2023-08-24T13:08:11;100899.03;;;34.01;60.03